Time;durP1;ratioP1;P1;durP2;ratioP2;P2;SDS_P1;SDS_P2;PMS_P1;PMS_P2;Temp;Humidity;BMP_temperature;BMP_pressure;BME280_temperature;BME280_humidity;BME280_pressure;Samples;Min_cycle;Max_cycle;Signal;HPM_P1;HPM_P2
2021/09/07 00:00:16;;;;;;;8.13;4.95;;;;;;;8.42;76.27;101847.23;1831857;76;20980;-80
2021/09/07 00:02:42;;;;;;;8.08;5.08;;;;;;;8.37;76.36;101843.53;1762546;79;21123;-79
2021/09/07 00:05:11;;;;;;;8.13;5.15;;;;;;;8.34;76.44;101843.95;1784857;78;21018;-80
2021/09/07 00:07:38;;;;;;;8.10;4.67;;;;;;;8.30;76.48;101838.75;1797626;78;21149;-79
2021/09/07 00:10:07;;;;;;;7.55;4.95;;;;;;;8.27;76.51;101848.48;1782181;79;21123;-79
2021/09/07 00:12:35;;;;;;;11.03;5.40;;;;;;;8.22;76.55;101845.91;1840828;77;21069;-79
2021/09/07 00:15:05;;;;;;;8.48;5.03;;;;;;;8.18;76.56;101849.22;1847658;76;21560;-79
2021/09/07 00:17:32;;;;;;;8.15;4.87;;;;;;;8.12;76.56;101848.20;1843854;76;21077;-79
2021/09/07 00:20:01;;;;;;;8.88;5.40;;;;;;;8.07;76.59;101848.02;1831425;76;21533;-79
2021/09/07 00:22:28;;;;;;;7.92;4.95;;;;;;;8.02;76.60;101846.48;1847115;77;21010;-79
2021/09/07 00:24:55;;;;;;;9.45;5.62;;;;;;;7.96;76.73;101852.15;1838771;77;21042;-79
2021/09/07 00:27:22;;;;;;;9.53;5.12;;;;;;;7.88;76.83;101853.68;1839724;76;21088;-79
2021/09/07 00:29:50;;;;;;;10.30;5.83;;;;;;;7.84;76.96;101851.14;1840040;76;21047;-73
2021/09/07 00:32:16;;;;;;;10.50;5.55;;;;;;;7.81;77.07;101852.06;1836324;77;21718;-73
2021/09/07 00:34:43;;;;;;;9.08;5.53;;;;;;;7.78;77.20;101853.28;1822798;77;21012;-73
2021/09/07 00:37:10;;;;;;;7.03;4.87;;;;;;;7.75;77.44;101849.70;1832417;76;21019;-73
2021/09/07 00:39:36;;;;;;;8.75;5.30;;;;;;;7.70;77.71;101844.17;1832619;77;21021;-73
2021/09/07 00:42:04;;;;;;;8.83;5.00;;;;;;;7.64;77.92;101856.48;1825297;76;21084;-73
2021/09/07 00:44:30;;;;;;;9.33;5.60;;;;;;;7.60;78.13;101856.59;1846992;77;21854;-72
2021/09/07 00:46:59;;;;;;;9.63;5.28;;;;;;;7.57;78.28;101858.32;1832242;76;21490;-73
2021/09/07 00:49:27;;;;;;;7.17;4.95;;;;;;;7.53;78.49;101853.09;1837224;76;21047;-72
2021/09/07 00:51:54;;;;;;;8.88;5.28;;;;;;;7.48;78.69;101860.36;1835838;77;21070;-73
2021/09/07 00:54:24;;;;;;;9.50;5.30;;;;;;;7.43;78.94;101853.49;1833703;77;21034;-73
2021/09/07 00:56:51;;;;;;;10.28;6.00;;;;;;;7.41;79.11;101860.05;1836515;76;21332;-72
2021/09/07 00:59:18;;;;;;;10.82;6.10;;;;;;;7.37;79.33;101858.31;1840388;77;21540;-73
2021/09/07 01:01:44;;;;;;;8.98;6.15;;;;;;;7.32;79.43;101848.80;1815645;77;21098;-73
2021/09/07 01:04:12;;;;;;;10.60;6.30;;;;;;;7.31;79.57;101856.47;1844488;77;21074;-73
2021/09/07 01:06:39;;;;;;;9.08;5.60;;;;;;;7.29;79.83;101857.98;1839343;76;21102;-73
2021/09/07 01:09:08;;;;;;;11.93;7.15;;;;;;;7.28;80.02;101858.20;1839532;76;21143;-73
2021/09/07 01:11:35;;;;;;;10.38;6.55;;;;;;;7.25;80.08;101849.30;1801894;77;21003;-73
2021/09/07 01:14:05;;;;;;;10.38;6.78;;;;;;;7.24;80.16;101855.14;1839738;76;21018;-73
2021/09/07 01:16:33;;;;;;;10.53;6.15;;;;;;;7.24;80.23;101855.14;1835079;76;21026;-73
2021/09/07 01:19:05;;;;;;;12.35;6.95;;;;;;;7.22;80.21;101848.38;1842554;76;21058;-73
2021/09/07 01:21:32;;;;;;;9.38;6.37;;;;;;;7.17;80.36;101850.33;1826850;76;21563;-73
2021/09/07 01:24:00;;;;;;;11.00;7.15;;;;;;;7.16;80.45;101846.02;1836500;77;21077;-73
2021/09/07 01:26:27;;;;;;;11.03;6.20;;;;;;;7.16;80.46;101842.55;1825065;76;21018;-73
2021/09/07 01:28:55;;;;;;;11.28;6.40;;;;;;;7.17;80.41;101851.66;1842896;76;21052;-73
2021/09/07 01:31:22;;;;;;;8.73;5.80;;;;;;;7.20;80.34;101845.91;1833528;76;21399;-73
2021/09/07 01:33:49;;;;;;;9.95;6.15;;;;;;;7.22;80.33;101847.86;1837614;76;21102;-73
2021/09/07 01:36:16;;;;;;;9.23;5.85;;;;;;;7.24;80.29;101847.68;1844094;77;20980;-73
2021/09/07 01:38:43;;;;;;;10.63;6.60;;;;;;;7.25;80.23;101854.63;1840507;76;21095;-72
2021/09/07 01:41:09;;;;;;;9.50;6.05;;;;;;;7.25;80.23;101855.43;1833408;76;21070;-73
2021/09/07 01:43:36;;;;;;;9.50;6.40;;;;;;;7.24;80.08;101852.48;1839816;77;21026;-73
2021/09/07 01:46:02;;;;;;;10.03;5.87;;;;;;;7.23;79.98;101854.80;1845710;77;22238;-73
2021/09/07 01:48:29;;;;;;;8.68;5.85;;;;;;;7.22;79.98;101851.85;1836783;76;21836;-73
2021/09/07 01:50:57;;;;;;;8.80;5.55;;;;;;;7.21;79.93;101855.53;1835911;77;21025;-73
2021/09/07 01:53:24;;;;;;;9.10;5.03;;;;;;;7.19;79.85;101854.09;1832605;76;21050;-73
2021/09/07 01:55:53;;;;;;;10.30;5.55;;;;;;;7.15;79.78;101846.23;1816233;77;21023;-73
2021/09/07 01:58:20;;;;;;;7.78;4.97;;;;;;;7.11;79.72;101844.97;1799146;78;21054;-73
2021/09/07 02:00:48;;;;;;;9.68;5.97;;;;;;;7.09;79.71;101846.52;1802834;78;21089;-73
2021/09/07 02:03:16;;;;;;;7.67;4.85;;;;;;;6.97;79.76;101843.63;1781848;78;21007;-73
2021/09/07 02:05:45;;;;;;;7.85;5.20;;;;;;;6.90;79.89;101849.95;1772314;78;21084;-73
2021/09/07 02:08:13;;;;;;;10.98;5.90;;;;;;;6.86;80.00;101852.70;1779383;78;21093;-73
2021/09/07 02:10:41;;;;;;;9.33;5.35;;;;;;;6.86;80.15;101854.03;1857239;76;21142;-73
2021/09/07 02:13:08;;;;;;;9.13;5.55;;;;;;;6.85;80.17;101859.86;1821863;77;21488;-73
2021/09/07 02:15:36;;;;;;;9.08;5.25;;;;;;;6.85;80.11;101861.70;1842239;77;21564;-73
2021/09/07 02:18:04;;;;;;;8.73;5.25;;;;;;;6.80;80.14;101863.61;1844088;76;21015;-73
2021/09/07 02:20:32;;;;;;;8.38;5.10;;;;;;;6.74;80.09;101860.42;1834542;76;21038;-73
2021/09/07 02:22:59;;;;;;;9.68;5.90;;;;;;;6.68;80.07;101864.70;1841973;77;21069;-72
2021/09/07 02:25:27;;;;;;;10.05;5.58;;;;;;;6.64;80.07;101866.61;1829231;76;21071;-73
2021/09/07 02:27:57;;;;;;;10.35;5.65;;;;;;;6.60;80.07;101858.23;1819589;76;21022;-73
2021/09/07 02:30:26;;;;;;;8.40;5.33;;;;;;;6.57;80.04;101858.62;1839883;76;21432;-73
2021/09/07 02:32:53;;;;;;;8.78;6.10;;;;;;;6.50;80.08;101865.75;1823411;77;21489;-73
2021/09/07 02:35:20;;;;;;;10.00;6.17;;;;;;;6.41;80.30;101858.95;1828648;76;21106;-73
2021/09/07 02:37:47;;;;;;;9.53;5.30;;;;;;;6.36;80.53;101862.22;1815100;79;21081;-73
2021/09/07 02:40:14;;;;;;;8.43;5.60;;;;;;;6.31;80.66;101865.95;1837343;76;21910;-73
2021/09/07 02:42:43;;;;;;;9.23;5.60;;;;;;;6.28;80.81;101861.04;1826949;76;20998;-73
2021/09/07 02:45:12;;;;;;;8.65;5.37;;;;;;;6.25;81.06;101864.92;1827123;77;21054;-73
2021/09/07 02:47:40;;;;;;;8.78;5.62;;;;;;;6.27;81.21;101862.06;1839453;76;21775;-73
2021/09/07 02:50:09;;;;;;;10.08;5.80;;;;;;;6.26;81.24;101865.73;1830976;76;20932;-73
2021/09/07 02:52:38;;;;;;;11.63;6.08;;;;;;;6.23;81.20;101867.45;1841644;77;21022;-73
2021/09/07 02:55:05;;;;;;;9.25;5.85;;;;;;;6.20;81.25;101875.80;1845498;76;21031;-73
2021/09/07 02:57:32;;;;;;;9.80;5.70;;;;;;;6.18;81.28;101875.98;1845376;76;21006;-73
2021/09/07 02:59:59;;;;;;;8.58;5.33;;;;;;;6.19;81.30;101873.66;1837455;76;21091;-73
2021/09/07 03:02:27;;;;;;;9.88;6.00;;;;;;;6.21;81.32;101874.27;1832884;77;21021;-73
2021/09/07 03:04:54;;;;;;;10.20;6.08;;;;;;;6.22;81.29;101874.60;1832771;76;21082;-73
2021/09/07 03:07:23;;;;;;;9.58;5.67;;;;;;;6.22;81.27;101878.58;1827419;77;20993;-73
2021/09/07 03:09:53;;;;;;;10.18;5.60;;;;;;;6.20;81.26;101874.48;1836895;76;21419;-73
2021/09/07 03:12:22;;;;;;;8.25;5.08;;;;;;;6.21;81.43;101876.11;1838262;76;20975;-72
2021/09/07 03:14:49;;;;;;;9.18;5.83;;;;;;;6.23;81.40;101877.55;1837543;76;20976;-73
2021/09/07 03:17:16;;;;;;;10.90;6.25;;;;;;;6.22;81.47;101869.77;1835405;76;21569;-73
2021/09/07 03:19:43;;;;;;;9.73;5.53;;;;;;;6.19;81.50;101870.20;1806248;77;21035;-73
2021/09/07 03:22:10;;;;;;;9.43;6.28;;;;;;;6.18;81.60;101873.84;1844937;76;21120;-73
2021/09/07 03:24:39;;;;;;;9.18;6.10;;;;;;;6.15;81.59;101878.21;1848229;77;21587;-71
2021/09/07 03:27:07;;;;;;;8.48;5.50;;;;;;;6.13;81.71;101877.09;1835934;77;21054;-73
2021/09/07 03:29:34;;;;;;;8.78;5.42;;;;;;;6.12;81.75;101875.47;1837853;76;21507;-72
2021/09/07 03:32:01;;;;;;;7.85;5.75;;;;;;;6.14;81.74;101877.39;1833283;76;21033;-72
2021/09/07 03:34:28;;;;;;;9.60;5.83;;;;;;;6.14;81.73;101882.70;1843768;76;21113;-72
2021/09/07 03:36:55;;;;;;;10.82;6.10;;;;;;;6.15;81.75;101875.55;1827409;76;21127;-72
2021/09/07 03:39:23;;;;;;;9.35;5.50;;;;;;;6.16;81.79;101878.03;1824445;77;21010;-72
2021/09/07 03:41:50;;;;;;;9.03;5.67;;;;;;;6.19;81.83;101878.97;1844623;76;21575;-72
2021/09/07 03:44:17;;;;;;;9.63;6.00;;;;;;;6.20;81.76;101877.95;1841297;76;21462;-73
2021/09/07 03:46:44;;;;;;;10.80;6.05;;;;;;;6.21;81.67;101877.43;1843618;76;21070;-72
2021/09/07 03:49:12;;;;;;;9.58;5.80;;;;;;;6.19;81.67;101874.98;1829593;77;21122;-72
2021/09/07 03:51:39;;;;;;;9.63;6.15;;;;;;;6.23;81.74;101875.41;1840944;76;21042;-73
2021/09/07 03:54:08;;;;;;;10.90;6.53;;;;;;;6.22;81.79;101869.77;1834427;76;21520;-72
2021/09/07 03:56:36;;;;;;;11.28;6.78;;;;;;;6.21;81.81;101872.94;1826360;76;21054;-73
2021/09/07 03:59:05;;;;;;;10.28;6.80;;;;;;;6.19;81.97;101872.34;1837264;77;21097;-72
2021/09/07 04:01:33;;;;;;;12.33;7.15;;;;;;;6.23;82.04;101871.44;1834704;76;21253;-73
2021/09/07 04:04:01;;;;;;;11.30;7.55;;;;;;;6.24;82.15;101869.90;1842957;76;21030;-72
2021/09/07 04:06:29;;;;;;;11.25;7.55;;;;;;;6.27;82.19;101869.51;1847405;77;21544;-73
2021/09/07 04:08:56;;;;;;;10.88;7.28;;;;;;;6.33;82.23;101871.89;1843130;77;21620;-73
2021/09/07 04:11:23;;;;;;;10.65;7.37;;;;;;;6.40;82.33;101871.93;1843915;76;21088;-72
2021/09/07 04:13:51;;;;;;;10.55;6.42;;;;;;;6.46;82.42;101881.77;1844602;77;21727;-73
2021/09/07 04:16:17;;;;;;;14.07;8.13;;;;;;;6.47;82.68;101877.56;1844316;76;20991;-73
2021/09/07 04:18:46;;;;;;;11.12;7.53;;;;;;;6.52;82.80;101874.34;1832383;76;20995;-73
2021/09/07 04:21:12;;;;;;;11.73;7.70;;;;;;;6.62;82.89;101877.45;1831204;76;21089;-76
2021/09/07 04:23:39;;;;;;;12.85;8.45;;;;;;;6.71;82.98;101882.91;1839557;76;20979;-77
2021/09/07 04:26:05;;;;;;;12.05;7.78;;;;;;;6.80;83.15;101874.23;1811012;78;21133;-76
2021/09/07 04:28:32;;;;;;;11.28;7.85;;;;;;;6.93;83.26;101876.11;1802374;78;21517;-76
2021/09/07 04:30:58;;;;;;;12.55;8.30;;;;;;;7.09;83.30;101879.73;1799076;78;21710;-76
2021/09/07 04:33:25;;;;;;;13.28;9.35;;;;;;;7.25;83.34;101875.36;1835666;76;21375;-76
2021/09/07 04:35:51;;;;;;;13.58;8.98;;;;;;;7.41;83.34;101883.47;1825532;77;21073;-75
2021/09/07 04:38:18;;;;;;;13.28;8.85;;;;;;;7.56;83.27;101880.59;1847479;76;22060;-75
2021/09/07 04:40:44;;;;;;;12.55;8.48;;;;;;;7.72;83.21;101884.17;1847386;77;21054;-75
2021/09/07 04:43:11;;;;;;;12.90;8.85;;;;;;;7.89;83.20;101881.09;1841737;76;21065;-75
2021/09/07 04:45:39;;;;;;;13.65;9.63;;;;;;;8.03;83.02;101881.89;1845008;77;21525;-76
2021/09/07 04:48:06;;;;;;;12.80;8.88;;;;;;;8.17;82.86;101876.34;1827346;76;21422;-76
2021/09/07 04:50:33;;;;;;;14.40;8.90;;;;;;;8.34;82.71;101876.71;1791454;78;21138;-75
2021/09/07 04:53:01;;;;;;;10.80;8.28;;;;;;;8.51;82.48;101874.95;1792660;78;21628;-76
2021/09/07 04:55:28;;;;;;;12.50;9.05;;;;;;;8.65;82.29;101872.03;1798467;78;22236;-76
2021/09/07 04:57:55;;;;;;;13.60;9.08;;;;;;;8.81;82.06;101867.23;1830128;76;20971;-76
2021/09/07 05:00:21;;;;;;;12.88;8.40;;;;;;;8.95;81.97;101874.14;1839197;77;20972;-76
2021/09/07 05:02:48;;;;;;;14.15;9.25;;;;;;;9.10;81.89;101865.31;1835761;77;21114;-76
2021/09/07 05:05:15;;;;;;;14.43;9.10;;;;;;;9.26;81.77;101866.66;1832204;76;21048;-75
2021/09/07 05:07:41;;;;;;;12.78;8.38;;;;;;;9.38;81.61;101862.78;1848300;76;21018;-76
2021/09/07 05:10:09;;;;;;;13.43;8.65;;;;;;;9.50;81.45;101873.03;1819578;77;21026;-77
2021/09/07 05:12:36;;;;;;;12.63;8.80;;;;;;;9.63;81.23;101872.92;1834910;76;21568;-75
2021/09/07 05:15:06;;;;;;;16.48;9.83;;;;;;;9.76;81.07;101869.33;1832604;76;20995;-75
2021/09/07 05:17:34;;;;;;;13.98;9.38;;;;;;;9.90;80.88;101876.69;1822946;76;20968;-75
2021/09/07 05:20:05;;;;;;;13.08;8.88;;;;;;;10.02;80.76;101873.59;1824542;77;21062;-75
2021/09/07 05:22:32;;;;;;;14.33;9.58;;;;;;;10.16;80.64;101876.94;1827162;76;20994;-76
2021/09/07 05:25:01;;;;;;;14.15;9.15;;;;;;;10.28;80.29;101874.39;1835561;77;21089;-75
2021/09/07 05:27:28;;;;;;;12.05;7.75;;;;;;;10.43;80.14;101878.85;1836828;76;21215;-76
2021/09/07 05:29:54;;;;;;;12.90;9.00;;;;;;;10.56;79.70;101876.02;1839346;76;21042;-75
2021/09/07 05:32:22;;;;;;;12.73;9.05;;;;;;;10.63;79.03;101879.11;1836800;76;21054;-76
2021/09/07 05:34:49;;;;;;;13.13;8.78;;;;;;;10.72;78.79;101885.25;1842806;77;21018;-76
2021/09/07 05:37:17;;;;;;;13.03;8.53;;;;;;;10.87;78.34;101890.22;1832602;76;21050;-76
2021/09/07 05:39:43;;;;;;;12.00;8.75;;;;;;;11.02;77.83;101887.96;1842429;76;21097;-77
2021/09/07 05:42:10;;;;;;;14.33;9.03;;;;;;;11.18;77.23;101892.35;1842920;76;21122;-76
2021/09/07 05:44:38;;;;;;;13.70;8.90;;;;;;;11.30;76.67;101897.22;1842416;77;22081;-76
2021/09/07 05:47:05;;;;;;;11.70;8.30;;;;;;;11.39;76.30;101902.55;1829484;77;22460;-75
2021/09/07 05:49:32;;;;;;;12.53;8.47;;;;;;;11.51;75.92;101901.21;1834449;76;21144;-75
2021/09/07 05:51:59;;;;;;;11.17;7.77;;;;;;;11.67;75.46;101897.05;1831065;76;21762;-76
2021/09/07 05:54:25;;;;;;;11.30;7.40;;;;;;;11.81;73.82;101898.98;1836548;76;21910;-77
2021/09/07 05:56:54;;;;;;;12.70;7.70;;;;;;;11.94;72.82;101899.62;1843245;77;21298;-76
2021/09/07 05:59:21;;;;;;;10.57;7.27;;;;;;;12.10;72.36;101891.37;1821801;76;21270;-75
2021/09/07 06:01:47;;;;;;;12.73;7.97;;;;;;;12.22;72.05;101895.92;1836349;76;21243;-75
2021/09/07 06:04:14;;;;;;;11.43;7.63;;;;;;;12.33;71.06;101893.74;1845698;76;22180;-75
2021/09/07 06:06:40;;;;;;;11.30;7.03;;;;;;;12.44;69.96;101895.08;1840446;76;21322;-75
2021/09/07 06:09:07;;;;;;;10.90;7.07;;;;;;;12.56;69.28;101895.55;1845997;77;21199;-74
2021/09/07 06:11:34;;;;;;;9.73;7.10;;;;;;;12.67;68.26;101900.09;1847297;76;22288;-74
2021/09/07 06:14:00;;;;;;;9.77;6.60;;;;;;;12.79;67.59;101904.86;1837998;76;21315;-74
2021/09/07 06:16:27;;;;;;;10.00;6.00;;;;;;;12.92;66.36;101902.43;1839282;76;21262;-73
2021/09/07 06:18:55;;;;;;;9.63;6.73;;;;;;;12.99;64.16;101909.80;1781626;78;21180;-74
2021/09/07 06:21:23;;;;;;;8.23;5.57;;;;;;;13.02;63.36;101911.20;1793310;78;21652;-74
2021/09/07 06:23:51;;;;;;;13.20;7.17;;;;;;;13.05;60.75;101910.72;1799359;78;21323;-75
2021/09/07 06:26:18;;;;;;;9.87;6.17;;;;;;;13.03;61.05;101916.34;1788460;78;21799;-74
2021/09/07 06:28:45;;;;;;;10.00;6.23;;;;;;;13.10;61.04;101912.17;1791865;78;22116;-73
2021/09/07 06:31:13;;;;;;;9.13;5.53;;;;;;;13.16;60.82;101909.84;1796962;78;21283;-72
2021/09/07 06:33:40;;;;;;;11.53;6.57;;;;;;;13.23;60.02;101910.53;1791740;78;21354;-73
2021/09/07 06:36:06;;;;;;;10.37;6.50;;;;;;;13.34;60.58;101908.86;1786477;78;21280;-73
2021/09/07 06:38:33;;;;;;;11.63;7.17;;;;;;;13.45;60.33;101912.52;1835359;76;21268;-73
2021/09/07 06:41:00;;;;;;;14.73;7.57;;;;;;;13.54;59.86;101917.78;1840021;76;21247;-73
2021/09/07 06:43:27;;;;;;;10.73;6.30;;;;;;;13.59;59.86;101912.51;1845150;77;21758;-74
2021/09/07 06:45:53;;;;;;;14.70;7.03;;;;;;;13.72;59.22;101922.92;1841072;76;21273;-74
2021/09/07 06:48:21;;;;;;;9.87;6.00;;;;;;;13.83;58.79;101920.66;1827759;76;21311;-74
2021/09/07 06:50:49;;;;;;;11.40;6.73;;;;;;;13.95;58.45;101919.25;1840597;76;37184;-74
2021/09/07 06:53:15;;;;;;;12.20;7.00;;;;;;;14.14;56.86;101920.30;1838238;76;21255;-75
2021/09/07 06:55:42;;;;;;;10.77;6.80;;;;;;;14.14;56.86;101920.30;1796999;78;21443;-75
2021/09/07 06:58:09;;;;;;;11.53;5.77;;;;;;;14.23;56.64;101925.00;1793476;78;21452;-75
2021/09/07 07:00:36;;;;;;;12.60;6.30;;;;;;;14.39;54.81;101925.22;1795069;79;21983;-70
2021/09/07 07:03:03;;;;;;;11.90;6.53;;;;;;;14.39;54.81;101925.22;1824833;77;21485;-70
2021/09/07 07:05:30;;;;;;;10.50;6.27;;;;;;;14.43;55.41;101923.66;1834196;76;21405;-69
2021/09/07 07:07:58;;;;;;;11.87;5.90;;;;;;;14.49;53.90;101925.34;1835611;76;21387;-69
2021/09/07 07:10:25;;;;;;;9.53;5.23;;;;;;;14.49;54.64;101922.66;1845880;76;21717;-70
2021/09/07 07:12:52;;;;;;;11.97;5.63;;;;;;;14.59;54.33;101930.88;1839817;77;21519;-70
2021/09/07 07:15:18;;;;;;;11.87;5.70;;;;;;;14.75;52.39;101925.97;1833899;76;21861;-69
2021/09/07 07:17:44;;;;;;;13.13;5.57;;;;;;;14.75;52.39;101925.97;1836965;76;21784;-70
2021/09/07 07:20:12;;;;;;;10.77;5.30;;;;;;;14.80;53.01;101919.02;1839663;77;21665;-71
2021/09/07 07:22:39;;;;;;;9.93;5.10;;;;;;;14.93;53.35;101928.04;1844297;76;21465;-71
2021/09/07 07:25:06;;;;;;;12.77;4.97;;;;;;;15.07;52.69;101929.29;1832378;76;21808;-71
2021/09/07 07:27:33;;;;;;;13.30;5.87;;;;;;;15.18;52.35;101932.34;1841489;76;21676;-71
2021/09/07 07:30:00;;;;;;;11.23;5.20;;;;;;;15.28;51.57;101926.25;1844504;76;21786;-71
2021/09/07 07:32:28;;;;;;;10.67;4.97;;;;;;;15.32;51.04;101929.25;1839984;76;21725;-71
2021/09/07 07:34:54;;;;;;;11.53;4.90;;;;;;;15.33;50.69;101925.48;1838814;77;21691;-71
2021/09/07 07:37:22;;;;;;;10.33;4.63;;;;;;;15.40;50.66;101925.56;1844098;76;21649;-70
2021/09/07 07:39:49;;;;;;;9.37;4.70;;;;;;;15.52;50.59;101920.00;1847529;77;21733;-70
2021/09/07 07:42:16;;;;;;;7.30;4.40;;;;;;;15.69;50.45;101919.89;1843152;76;21728;-69
2021/09/07 07:44:43;;;;;;;10.60;4.60;;;;;;;15.85;50.61;101921.63;1849898;77;22144;-70
2021/09/07 07:47:12;;;;;;;12.00;4.57;;;;;;;15.96;48.76;101919.84;1843137;76;22960;-69
2021/09/07 07:49:40;;;;;;;8.73;4.40;;;;;;;15.96;48.76;101919.84;1830730;76;21064;-69
2021/09/07 07:52:08;;;;;;;12.80;5.07;;;;;;;16.07;49.32;101919.36;1836649;77;21712;-70
2021/09/07 07:54:35;;;;;;;10.83;4.50;;;;;;;16.18;49.43;101918.33;1838454;76;21650;-70
2021/09/07 07:57:02;;;;;;;10.40;4.63;;;;;;;16.35;48.67;101914.10;1845466;76;22177;-70
2021/09/07 07:59:29;;;;;;;8.37;4.17;;;;;;;16.44;47.84;101918.47;1845012;76;21045;-71
2021/09/07 08:01:55;;;;;;;9.30;4.33;;;;;;;16.44;47.84;101918.47;1836021;76;21478;-71
2021/09/07 08:04:22;;;;;;;9.27;3.80;;;;;;;16.48;47.01;101914.97;1839109;76;21026;-69
2021/09/07 08:06:48;;;;;;;9.10;4.30;;;;;;;16.48;46.58;101906.07;1845743;76;21800;-69
2021/09/07 08:09:15;;;;;;;10.57;3.83;;;;;;;16.52;46.83;101915.25;1837539;76;20996;-70
2021/09/07 08:11:41;;;;;;;8.43;3.80;;;;;;;16.62;47.66;101909.38;1838936;76;21031;-68
2021/09/07 08:14:08;;;;;;;9.90;4.00;;;;;;;16.82;48.28;101908.66;1787789;79;21607;-69
2021/09/07 08:16:35;;;;;;;8.57;3.83;;;;;;;17.02;48.31;101905.75;1784761;78;21042;-71
2021/09/07 08:19:02;;;;;;;9.00;4.07;;;;;;;17.19;47.41;101906.30;1800099;78;21190;-71
2021/09/07 08:21:28;;;;;;;7.83;3.67;;;;;;;17.34;46.60;101906.33;1803689;79;21029;-69
2021/09/07 08:23:56;;;;;;;7.73;3.63;;;;;;;17.51;46.13;101902.55;1799742;78;21102;-68
2021/09/07 08:26:22;;;;;;;7.67;3.53;;;;;;;17.67;45.61;101907.38;1802125;78;20963;-69
2021/09/07 08:28:49;;;;;;;8.10;3.30;;;;;;;17.76;43.84;101903.89;1797125;78;21082;-69
2021/09/07 08:31:16;;;;;;;8.17;3.00;;;;;;;17.79;43.37;101904.70;1803721;79;21752;-69
2021/09/07 08:33:43;;;;;;;6.40;3.30;;;;;;;17.84;42.98;101906.59;1791080;79;21038;-70
2021/09/07 08:36:10;;;;;;;6.10;2.87;;;;;;;17.89;42.20;101904.42;1794495;78;21616;-69
2021/09/07 08:38:36;;;;;;;6.60;3.53;;;;;;;17.92;44.02;101904.68;1798729;78;21092;-70
2021/09/07 08:41:03;;;;;;;9.07;3.97;;;;;;;18.05;44.50;101901.41;1775901;79;20979;-70
2021/09/07 08:43:30;;;;;;;10.07;3.53;;;;;;;18.24;44.47;101900.83;1790394;79;21463;-71
2021/09/07 08:45:58;;;;;;;8.70;3.70;;;;;;;18.37;43.81;101895.38;1802657;79;21015;-71
2021/09/07 08:48:26;;;;;;;8.73;3.13;;;;;;;18.48;42.93;101892.88;1795765;78;21132;-70
2021/09/07 08:50:55;;;;;;;8.60;3.30;;;;;;;18.56;42.79;101891.48;1799431;78;21022;-70
2021/09/07 08:53:22;;;;;;;10.83;3.43;;;;;;;18.57;42.04;101893.12;1794136;79;21019;-70
2021/09/07 08:55:50;;;;;;;8.63;3.93;;;;;;;18.56;42.43;101890.13;1795609;78;21148;-69
2021/09/07 08:58:16;;;;;;;8.97;3.77;;;;;;;18.64;41.62;101892.27;1800619;78;22152;-69
2021/09/07 09:00:48;;;;;;;7.17;3.30;;;;;;;18.72;41.80;101893.05;1764744;79;21034;-69
2021/09/07 09:03:15;;;;;;;6.37;3.10;;;;;;;18.84;42.22;101888.12;1776003;79;21616;-69
2021/09/07 09:05:45;;;;;;;5.93;2.53;;;;;;;18.98;41.50;101882.33;1782463;78;21545;-69
2021/09/07 09:08:15;;;;;;;5.33;2.57;;;;;;;19.11;40.66;101885.50;1793745;78;21142;-69
2021/09/07 09:10:45;;;;;;;6.60;3.10;;;;;;;19.19;39.85;101883.02;1800572;78;21540;-68
2021/09/07 09:13:16;;;;;;;7.25;2.62;;;;;;;19.28;38.88;101884.58;1803916;78;21089;-69
2021/09/07 09:16:07;;;;;;;6.10;2.67;;;;;;;19.33;38.64;101876.95;1784578;78;21031;-69
2021/09/07 09:18:36;;;;;;;7.23;2.40;;;;;;;19.38;37.92;101866.05;1800833;78;21023;-69
2021/09/07 09:21:27;;;;;;;5.73;2.37;;;;;;;19.50;37.56;101865.69;1798959;78;21423;-69
2021/09/07 09:24:19;;;;;;;5.10;2.20;;;;;;;19.61;36.98;101867.20;1780729;78;21051;-69
2021/09/07 09:27:03;;;;;;;4.27;2.10;;;;;;;19.44;35.99;101870.34;1798177;78;21050;-70
2021/09/07 09:29:35;;;;;;;5.70;2.27;;;;;;;19.24;37.02;101878.64;1795606;78;20991;-70
2021/09/07 09:32:07;;;;;;;8.63;2.67;;;;;;;19.14;37.04;101871.40;1843661;76;21026;-70
2021/09/07 09:34:37;;;;;;;5.70;2.40;;;;;;;19.09;37.51;101872.81;1850652;76;21117;-70
2021/09/07 09:37:12;;;;;;;4.62;2.75;;;;;;;19.11;37.16;101869.25;1843618;77;21010;-70
2021/09/07 09:39:51;;;;;;;4.87;2.40;;;;;;;19.24;36.53;101868.61;1840575;76;21022;-69
2021/09/07 09:42:26;;;;;;;5.63;2.43;;;;;;;19.25;35.99;101868.06;1833245;76;21085;-69
2021/09/07 09:45:08;;;;;;;4.93;2.50;;;;;;;19.04;35.52;101868.77;1864460;76;20964;-69
2021/09/07 09:47:45;;;;;;;6.80;2.53;;;;;;;18.95;36.19;101867.20;1790868;79;21162;-69
2021/09/07 09:50:13;;;;;;;7.07;2.70;;;;;;;18.99;37.34;101865.56;1767692;79;20991;-69
2021/09/07 09:52:43;;;;;;;5.87;2.27;;;;;;;19.05;36.68;101862.26;1795110;79;21038;-69
2021/09/07 09:55:12;;;;;;;4.63;2.50;;;;;;;19.09;36.17;101864.69;1784534;78;21539;-68
2021/09/07 09:57:39;;;;;;;9.93;2.90;;;;;;;19.19;35.97;101865.41;1815931;79;20987;-69
2021/09/07 10:00:11;;;;;;;5.57;2.50;;;;;;;19.26;35.80;101867.80;1841008;76;21530;-69
2021/09/07 10:02:42;;;;;;;5.43;2.20;;;;;;;19.21;34.81;101862.41;1838064;77;21105;-69
2021/09/07 10:05:13;;;;;;;5.83;2.00;;;;;;;19.18;34.96;101867.03;1833845;77;21003;-69
2021/09/07 10:07:41;;;;;;;6.17;2.50;;;;;;;19.15;35.59;101868.42;1815965;79;21039;-69
2021/09/07 10:10:09;;;;;;;4.10;2.17;;;;;;;19.26;35.06;101869.70;1835986;76;20987;-69
2021/09/07 10:12:43;;;;;;;6.83;2.57;;;;;;;19.41;34.36;101869.03;1834640;77;21107;-69
2021/09/07 10:15:27;;;;;;;8.30;2.40;;;;;;;19.54;34.42;101858.60;1833895;77;21049;-69
2021/09/07 10:17:52;;;;;;;5.40;2.63;;;;;;;19.69;35.00;101857.14;1815798;78;21050;-69
2021/09/07 10:20:53;;;;;;;5.10;2.50;;;;;;;19.73;34.02;101862.23;1834983;76;21033;-69
2021/09/07 10:23:31;;;;;;;5.37;2.40;;;;;;;19.53;34.11;101857.80;1833827;77;20920;-69
2021/09/07 10:26:01;;;;;;;4.67;2.40;;;;;;;19.21;35.62;101855.08;1798826;77;21479;-69
2021/09/07 10:28:41;;;;;;;5.17;2.40;;;;;;;19.18;36.17;101855.67;1844079;77;21002;-70
2021/09/07 10:31:18;;;;;;;4.97;2.33;;;;;;;19.18;36.28;101858.38;1840394;76;21063;-69
2021/09/07 10:34:01;;;;;;;4.23;2.40;;;;;;;19.18;35.84;101852.97;1837474;76;21051;-70
2021/09/07 10:36:31;;;;;;;4.27;2.27;;;;;;;19.31;34.14;101850.13;1840866;77;20952;-69
2021/09/07 10:39:01;;;;;;;3.90;2.30;;;;;;;19.36;34.16;101853.36;1828232;76;21158;-70
2021/09/07 10:41:41;;;;;;;4.57;2.50;;;;;;;19.39;34.22;101852.23;1840807;76;21459;-70
2021/09/07 10:44:27;;;;;;;6.30;2.60;;;;;;;19.45;34.82;101851.66;1832472;77;20987;-69
2021/09/07 10:47:14;;;;;;;4.17;2.47;;;;;;;19.64;35.02;101843.09;1820276;78;21097;-70
2021/09/07 10:49:51;;;;;;;3.33;2.07;;;;;;;19.77;33.22;101842.94;1791012;78;21104;-69
2021/09/07 10:52:28;;;;;;;4.60;2.03;;;;;;;19.91;33.52;101837.66;1799135;78;21059;-69
2021/09/07 10:55:10;;;;;;;3.83;2.20;;;;;;;19.98;33.70;101837.31;1794197;78;21541;-69
2021/09/07 10:57:43;;;;;;;4.65;2.10;;;;;;;19.90;32.79;101836.83;1782118;78;21656;-70
2021/09/07 11:00:25;;;;;;;4.77;2.13;;;;;;;19.72;33.92;101841.66;1789637;78;21611;-70
2021/09/07 11:03:02;;;;;;;3.40;2.00;;;;;;;19.61;34.28;101841.45;1788777;79;21066;-70
2021/09/07 11:05:36;;;;;;;4.87;2.43;;;;;;;19.58;34.30;101839.34;1790503;78;21070;-69
2021/09/07 11:08:19;;;;;;;4.43;2.20;;;;;;;19.51;34.02;101845.06;1792912;78;21104;-69
2021/09/07 11:10:52;;;;;;;4.50;2.40;;;;;;;19.54;35.75;101839.63;1841693;76;21042;-69
2021/09/07 11:13:25;;;;;;;8.77;2.70;;;;;;;19.72;34.44;101832.72;1834869;76;21122;-69
2021/09/07 11:15:56;;;;;;;4.13;2.47;;;;;;;19.91;33.98;101829.53;1838478;77;21010;-69
2021/09/07 11:18:25;;;;;;;3.47;2.07;;;;;;;20.11;33.50;101830.64;1841316;76;21080;-69
2021/09/07 11:20:53;;;;;;;3.90;1.90;;;;;;;20.24;32.89;101826.41;1844444;76;21568;-69
2021/09/07 11:23:31;;;;;;;4.00;2.17;;;;;;;20.34;32.44;101827.63;1836820;76;21031;-69
2021/09/07 11:26:01;;;;;;;3.17;1.80;;;;;;;20.42;32.37;101829.43;1759842;78;21594;-74
2021/09/07 11:28:31;;;;;;;4.90;2.30;;;;;;;20.35;32.49;101827.88;1766674;79;21057;-70
2021/09/07 11:30:58;;;;;;;5.40;1.97;;;;;;;20.28;32.83;101826.08;1792145;78;21133;-70
2021/09/07 11:33:30;;;;;;;3.73;2.03;;;;;;;20.39;32.70;101823.47;1806599;78;21450;-70